createdAt,value
2023-04-16T02:30:42.039Z,9.762357
2023-04-16T02:31:42.031Z,9.762763
2023-04-16T02:32:42.045Z,9.762694
2023-04-16T02:33:41.994Z,9.762734
2023-04-16T02:34:41.983Z,9.762673
2023-04-16T02:35:41.984Z,9.762761
2023-04-16T02:36:41.989Z,9.762515
2023-04-16T02:37:41.950Z,9.761999
2023-04-16T02:38:41.952Z,9.762462
2023-04-16T02:39:41.932Z,9.762804
2023-04-16T02:40:41.922Z,9.762901
2023-04-16T02:41:41.929Z,9.763023
2023-04-16T02:42:41.905Z,9.762893
2023-04-16T02:43:41.891Z,9.762611
2023-04-16T02:44:41.894Z,9.762794
2023-04-16T02:45:41.891Z,9.762704
2023-04-16T02:46:41.881Z,9.762785
2023-04-16T02:47:41.882Z,9.762727
2023-04-16T02:48:41.848Z,9.762714
2023-04-16T02:49:41.832Z,9.762681
2023-04-16T02:50:41.828Z,9.762726
2023-04-16T02:51:41.838Z,9.762658
2023-04-16T02:52:41.812Z,9.762644
2023-04-16T02:53:41.795Z,9.762630
2023-04-16T02:54:41.793Z,9.762736
2023-04-16T02:55:41.807Z,9.762693
2023-04-16T02:56:41.786Z,9.762656
2023-04-16T02:57:41.757Z,9.762727
2023-04-16T02:58:41.748Z,9.762938
2023-04-16T02:59:41.736Z,9.762805
2023-04-16T03:00:41.725Z,9.762700
2023-04-16T03:01:41.756Z,9.762826
2023-04-16T03:02:41.801Z,9.762780
2023-04-16T03:03:41.715Z,9.762772
2023-04-16T03:04:41.844Z,9.762667
2023-04-16T03:05:41.676Z,9.762646
2023-04-16T03:06:41.668Z,9.762773
2023-04-16T03:07:41.673Z,9.762802
2023-04-16T03:08:41.660Z,9.762669
2023-04-16T03:09:41.645Z,9.762626
2023-04-16T03:10:41.630Z,9.762792
2023-04-16T03:11:41.621Z,9.762854
2023-04-16T03:12:41.634Z,9.762554
2023-04-16T03:13:41.596Z,9.762818
2023-04-16T03:14:41.601Z,9.762714
2023-04-16T03:15:41.620Z,9.762795
2023-04-16T03:16:41.588Z,9.762750
2023-04-16T03:17:41.640Z,9.762744
2023-04-16T03:18:41.550Z,9.762715
2023-04-16T03:19:41.552Z,9.762753
2023-04-16T03:20:41.533Z,9.762924
2023-04-16T03:21:41.522Z,9.762989
2023-04-16T03:22:41.527Z,9.762683
2023-04-16T03:23:41.509Z,9.762747
2023-04-16T03:24:41.498Z,9.762754
2023-04-16T03:25:41.489Z,9.762847
2023-04-16T03:26:41.472Z,9.762833
2023-04-16T03:27:41.472Z,9.762786
2023-04-16T03:28:41.455Z,9.762791
2023-04-16T03:29:41.455Z,9.762802
2023-04-16T03:30:41.441Z,9.762659
2023-04-16T03:31:41.537Z,9.762649
2023-04-16T03:32:41.580Z,9.762801
2023-04-16T03:33:41.417Z,9.762615
2023-04-16T03:34:41.411Z,9.763084
2023-04-16T03:35:41.387Z,9.762836
2023-04-16T03:36:41.374Z,9.762671
2023-04-16T03:37:41.382Z,9.762866
2023-04-16T03:38:41.358Z,9.762706
2023-04-16T03:39:41.348Z,9.762643
2023-04-16T03:40:41.343Z,9.762633
2023-04-16T03:41:41.335Z,9.762850
2023-04-16T03:42:41.346Z,9.762919
2023-04-16T03:43:41.325Z,9.762696
2023-04-16T03:44:41.303Z,9.762550
2023-04-16T03:45:41.301Z,9.762686
2023-04-16T03:46:41.346Z,9.762538
2023-04-16T03:47:41.322Z,9.763143
2023-04-16T03:48:41.273Z,9.762837
2023-04-16T03:49:41.251Z,9.762687
2023-04-16T03:50:41.236Z,9.762740
2023-04-16T03:51:41.232Z,9.762748
2023-04-16T03:52:41.239Z,9.762786
2023-04-16T03:53:41.213Z,9.762550
2023-04-16T03:54:41.203Z,9.763014
2023-04-16T03:55:41.193Z,9.763061
2023-04-16T03:56:41.183Z,9.762973
2023-04-16T03:57:41.186Z,9.762850
2023-04-16T03:58:41.170Z,9.762911
2023-04-16T03:59:41.151Z,9.762782
2023-04-16T04:00:41.159Z,9.762812
2023-04-16T04:01:41.157Z,9.762998
2023-04-16T04:02:41.285Z,9.762913
2023-04-16T04:03:41.343Z,9.762709
2023-04-16T04:04:41.284Z,9.762674
2023-04-16T04:05:41.131Z,9.763313
2023-04-16T04:06:41.085Z,9.762946
2023-04-16T04:07:41.118Z,9.763223
2023-04-16T04:08:42.068Z,9.762803
2023-04-16T04:09:41.057Z,9.762833
2023-04-16T04:10:41.066Z,9.762872
2023-04-16T04:11:41.028Z,9.762940
2023-04-16T04:12:41.035Z,9.762922
2023-04-16T04:13:41.027Z,9.762895
2023-04-16T04:14:40.999Z,9.762893
2023-04-16T04:15:41.017Z,9.762830
2023-04-16T04:16:41.190Z,9.762755
2023-04-16T04:17:41.077Z,9.762259
2023-04-16T04:18:41.726Z,9.761092
2023-04-16T04:19:47.091Z,9.760453
2023-04-16T04:20:42.972Z,9.763015
2023-04-16T04:21:40.952Z,9.762874
2023-04-16T04:22:40.952Z,9.762795
2023-04-16T04:23:40.924Z,9.762655
2023-04-16T04:24:40.913Z,9.762805
2023-04-16T04:25:40.903Z,9.762608
2023-04-16T04:26:40.916Z,9.762760
2023-04-16T04:27:40.887Z,9.762753
2023-04-16T04:28:40.885Z,9.762895
2023-04-16T04:29:40.901Z,9.762955
2023-04-16T04:30:40.847Z,9.762860
2023-04-16T04:31:40.901Z,9.762942
2023-04-16T04:32:40.929Z,9.762847
2023-04-16T04:33:40.822Z,9.762813
2023-04-16T04:34:40.822Z,9.762770
2023-04-16T04:35:40.800Z,9.762635
2023-04-16T04:36:40.798Z,9.762734
2023-04-16T04:37:40.788Z,9.762741
2023-04-16T04:38:40.765Z,9.762667
2023-04-16T04:39:40.761Z,9.762923
2023-04-16T04:40:40.745Z,9.763020
2023-04-16T04:41:40.746Z,9.763135
2023-04-16T04:42:40.748Z,9.763016
2023-04-16T04:43:40.729Z,9.762897
2023-04-16T04:44:40.705Z,9.762970
2023-04-16T04:45:40.724Z,9.762776
2023-04-16T04:46:40.709Z,9.762696
2023-04-16T04:47:40.728Z,9.762761
2023-04-16T04:48:40.661Z,9.762834
2023-04-16T04:49:40.657Z,9.762812
2023-04-16T04:50:40.650Z,9.762131
2023-04-16T04:51:40.643Z,9.762816
2023-04-16T04:52:40.622Z,9.762814
2023-04-16T04:53:40.606Z,9.762910
2023-04-16T04:54:40.607Z,9.762941
2023-04-16T04:55:40.607Z,9.765186
2023-04-16T04:56:40.597Z,9.767990
2023-04-16T04:57:40.578Z,9.769998
2023-04-16T04:58:40.581Z,9.773335
2023-04-16T04:59:40.562Z,9.778057
2023-04-16T05:00:40.553Z,9.782588
2023-04-16T05:01:40.605Z,9.788842
2023-04-16T05:02:40.601Z,9.797282
2023-04-16T05:03:40.623Z,9.806095
2023-04-16T05:04:40.555Z,9.764087
2023-04-16T05:05:40.497Z,9.763171
2023-04-16T05:06:40.499Z,9.763096
2023-04-16T05:07:40.483Z,9.763039
2023-04-16T05:08:40.477Z,9.763107
2023-04-16T05:09:40.463Z,9.763082
2023-04-16T05:10:40.451Z,9.763082
2023-04-16T05:11:40.445Z,9.763082
2023-04-16T05:12:40.451Z,9.763082
2023-04-16T05:13:40.427Z,9.763082
2023-04-16T05:14:40.443Z,9.763082
2023-04-16T05:15:40.409Z,9.763082
2023-04-16T05:16:40.412Z,9.763082
2023-04-16T05:17:40.400Z,9.763000
2023-04-16T05:18:40.380Z,9.762991
2023-04-16T05:19:40.360Z,9.762904
2023-04-16T05:20:40.366Z,9.762904
2023-04-16T05:21:40.355Z,9.762915
2023-04-16T05:22:40.338Z,9.762841
2023-04-16T05:23:40.326Z,9.763050
2023-04-16T05:24:40.324Z,9.762703
2023-04-16T05:25:40.305Z,9.762682
2023-04-16T05:26:40.293Z,9.762682
2023-04-16T05:27:40.296Z,9.762682
2023-04-16T05:28:40.271Z,9.762796
2023-04-16T05:29:40.273Z,9.762659
2023-04-16T05:30:40.385Z,9.762292
2023-04-16T05:31:40.246Z,9.762798
2023-04-16T05:32:40.268Z,9.762713
2023-04-16T05:33:40.230Z,9.762581
2023-04-16T05:34:40.214Z,9.762553
2023-04-16T05:35:40.207Z,9.763011
2023-04-16T05:36:40.194Z,9.762740
2023-04-16T05:37:40.206Z,9.762640
2023-04-16T05:38:40.174Z,9.763538
2023-04-16T05:39:40.163Z,9.762111
2023-04-16T05:40:40.160Z,9.762733
2023-04-16T05:41:40.148Z,9.762716
2023-04-16T05:42:40.147Z,9.762972
2023-04-16T05:43:40.126Z,9.762830
2023-04-16T05:44:40.114Z,9.762713
2023-04-16T05:45:40.106Z,9.762608
2023-04-16T05:46:40.110Z,9.762944
2023-04-16T05:47:40.110Z,9.762359
2023-04-16T05:48:40.087Z,9.762910
2023-04-16T05:49:40.062Z,9.763772
2023-04-16T05:50:40.065Z,9.763379
2023-04-16T05:51:40.049Z,9.763637
2023-04-16T05:52:40.061Z,9.763899
2023-04-16T05:53:40.031Z,9.764071
2023-04-16T05:54:40.031Z,9.764071
2023-04-16T05:55:40.011Z,9.764071
2023-04-16T05:56:40.010Z,9.764071
2023-04-16T05:57:40.002Z,9.764071
2023-04-16T05:58:39.980Z,9.764071
2023-04-16T05:59:39.974Z,9.764071
2023-04-16T06:00:39.959Z,9.764071
2023-04-16T06:01:39.948Z,9.764071
2023-04-16T06:02:40.060Z,9.764071
2023-04-16T06:03:40.010Z,9.764071
2023-04-16T06:04:39.923Z,9.764071
2023-04-16T06:05:39.965Z,9.764071
2023-04-16T06:06:39.900Z,9.764071
2023-04-16T06:07:39.908Z,9.764071
2023-04-16T06:08:39.879Z,9.764071
2023-04-16T06:09:39.872Z,9.764071
2023-04-16T06:10:39.865Z,9.764071
2023-04-16T06:11:39.853Z,9.764071
2023-04-16T06:12:39.862Z,9.764071
2023-04-16T06:13:39.859Z,9.764071
2023-04-16T06:14:39.843Z,9.764071
2023-04-16T06:15:39.830Z,9.764071
2023-04-16T06:16:39.808Z,9.764071
2023-04-16T06:17:39.926Z,9.764071
2023-04-16T06:18:39.789Z,9.764071
2023-04-16T06:19:39.779Z,9.764071
2023-04-16T06:20:39.764Z,9.764071
2023-04-16T06:21:39.771Z,9.764071
2023-04-16T06:22:39.768Z,9.764071
2023-04-16T06:23:39.740Z,9.764071
2023-04-16T06:24:39.814Z,9.764071
2023-04-16T06:25:39.728Z,9.764071
2023-04-16T06:26:39.924Z,9.764071
2023-04-16T06:27:39.718Z,9.764071
2023-04-16T06:28:39.681Z,9.764071
2023-04-16T06:29:41.458Z,9.764071
2023-04-16T06:30:41.421Z,9.764071
2023-04-16T06:31:39.678Z,9.764071
2023-04-16T06:32:40.289Z,9.764071
2023-04-16T06:33:39.661Z,9.764071
2023-04-16T06:34:39.745Z,9.764071
2023-04-16T06:35:41.816Z,9.764071
2023-04-16T06:36:41.253Z,9.764071
2023-04-16T06:37:39.622Z,9.764071
2023-04-16T06:38:39.589Z,9.764071
2023-04-16T06:39:39.579Z,9.764071
2023-04-16T06:40:42.225Z,9.764071
2023-04-16T06:41:39.548Z,9.764071
2023-04-16T06:42:41.445Z,9.764071
2023-04-16T06:43:39.543Z,9.764071
2023-04-16T06:44:39.525Z,9.764071
2023-04-16T06:45:39.520Z,9.764071
2023-04-16T06:46:39.558Z,9.764071
2023-04-16T06:47:39.574Z,9.764071
2023-04-16T06:48:39.504Z,9.764071
2023-04-16T06:49:39.478Z,9.764071
2023-04-16T06:50:39.468Z,9.764071
2023-04-16T06:51:39.453Z,9.764071
2023-04-16T06:52:39.445Z,9.764071
2023-04-16T06:53:39.441Z,9.764071
2023-04-16T06:54:39.422Z,9.764071
2023-04-16T06:55:39.651Z,9.764071
2023-04-16T06:56:40.405Z,9.764071
2023-04-16T06:57:39.400Z,9.764071
2023-04-16T06:58:39.394Z,9.764071
2023-04-16T06:59:39.377Z,9.764071
2023-04-16T07:00:39.395Z,9.764071
2023-04-16T07:01:39.357Z,9.764071
2023-04-16T07:02:39.499Z,9.764071
2023-04-16T07:03:39.512Z,9.764071
2023-04-16T07:04:41.884Z,9.764071
2023-04-16T07:05:39.321Z,9.764071
2023-04-16T07:06:39.305Z,9.764071
2023-04-16T07:07:39.293Z,9.764071
2023-04-16T07:08:39.910Z,9.764071
2023-04-16T07:09:39.275Z,9.764071
2023-04-16T07:10:39.258Z,9.764071
2023-04-16T07:11:40.075Z,9.764071
2023-04-16T07:12:42.737Z,9.764071
2023-04-16T07:13:41.036Z,9.764071
2023-04-16T07:14:39.212Z,9.764071
2023-04-16T07:15:42.857Z,9.764071
2023-04-16T07:16:39.203Z,9.764071
2023-04-16T07:17:39.900Z,9.764071
2023-04-16T07:18:39.189Z,9.764071
2023-04-16T07:19:39.172Z,9.764071
2023-04-16T07:20:40.357Z,9.764071
2023-04-16T07:21:39.149Z,9.764071
2023-04-16T07:22:39.143Z,9.764071
2023-04-16T07:23:39.152Z,9.764071
2023-04-16T07:24:39.121Z,9.764071
2023-04-16T07:25:39.357Z,9.764071
2023-04-16T07:26:39.135Z,9.764071
2023-04-16T07:27:39.102Z,9.764071
2023-04-16T07:28:39.140Z,9.764071
2023-04-16T07:29:39.073Z,9.764071
2023-04-16T07:30:39.071Z,9.764071
2023-04-16T07:31:39.053Z,9.764071
2023-04-16T07:32:39.091Z,9.764071
2023-04-16T07:33:39.038Z,9.764071
2023-04-16T07:34:39.016Z,9.764071
2023-04-16T07:35:39.018Z,9.764071
2023-04-16T07:36:38.993Z,9.764071
2023-04-16T07:37:38.985Z,9.764071
2023-04-16T07:38:38.982Z,9.764071
2023-04-16T07:39:38.966Z,9.764071
2023-04-16T07:40:38.958Z,9.764071
2023-04-16T07:41:38.946Z,9.764071
2023-04-16T07:42:38.933Z,9.764071
2023-04-16T07:43:38.930Z,9.764071
2023-04-16T07:44:38.902Z,9.764071
2023-04-16T07:45:41.348Z,9.764071
2023-04-16T07:46:46.834Z,9.764071
2023-04-16T07:47:40.920Z,9.764071
2023-04-16T07:48:38.886Z,9.764071
2023-04-16T07:49:38.860Z,9.764071
2023-04-16T07:50:38.862Z,9.764071
2023-04-16T07:51:38.847Z,9.764071
2023-04-16T07:52:38.842Z,9.764071
2023-04-16T07:53:38.845Z,9.764071
2023-04-16T07:54:38.827Z,9.764071
2023-04-16T07:55:38.796Z,9.764071
2023-04-16T07:56:38.799Z,9.764071
2023-04-16T07:57:38.780Z,9.764071
2023-04-16T07:58:38.777Z,9.764071
2023-04-16T07:59:38.756Z,9.764071
2023-04-16T08:00:38.770Z,9.764071
2023-04-16T08:01:38.739Z,9.764071
2023-04-16T08:02:38.845Z,9.764071
2023-04-16T08:03:38.872Z,9.764071
2023-04-16T08:04:38.975Z,9.764071
2023-04-16T08:05:38.705Z,9.764071
2023-04-16T08:06:38.691Z,9.764071
2023-04-16T08:07:38.684Z,9.764071
2023-04-16T08:08:38.692Z,9.764071
2023-04-16T08:09:38.670Z,9.764071
2023-04-16T08:10:38.652Z,9.764071
2023-04-16T08:11:38.644Z,9.764071
2023-04-16T08:12:38.632Z,9.764071
2023-04-16T08:13:38.618Z,9.764071
2023-04-16T08:14:38.622Z,9.764071
2023-04-16T08:15:38.660Z,9.764071
2023-04-16T08:16:38.589Z,9.764071
2023-04-16T08:17:38.617Z,9.764071
2023-04-16T08:18:38.593Z,9.764071
2023-04-16T08:19:38.578Z,9.764071
2023-04-16T08:20:38.567Z,9.764071
2023-04-16T08:21:38.548Z,9.764071
2023-04-16T08:22:38.532Z,9.764071
2023-04-16T08:23:38.525Z,9.764071
2023-04-16T08:24:38.531Z,9.764071
2023-04-16T08:25:38.563Z,9.764071
2023-04-16T08:26:38.501Z,9.764071
2023-04-16T08:27:38.490Z,9.764071
2023-04-16T08:28:38.498Z,9.764071
2023-04-16T08:29:38.469Z,9.764071
2023-04-16T08:30:38.448Z,9.764071
2023-04-16T08:31:38.480Z,9.764071
2023-04-16T08:32:38.516Z,9.764071
2023-04-16T08:33:38.421Z,9.764071
2023-04-16T08:34:38.422Z,9.764071
2023-04-16T08:35:38.398Z,9.764071
2023-04-16T08:36:38.381Z,9.764071
2023-04-16T08:37:38.374Z,9.764071
2023-04-16T08:38:38.378Z,9.764071
2023-04-16T08:39:38.364Z,9.764071
2023-04-16T08:40:38.346Z,9.764071
2023-04-16T08:41:38.339Z,9.764071
2023-04-16T08:42:38.325Z,9.764071
2023-04-16T08:43:38.321Z,9.764071
2023-04-16T08:44:38.324Z,9.764071
2023-04-16T08:45:38.300Z,9.764071
2023-04-16T08:46:38.350Z,9.764071
2023-04-16T08:47:38.330Z,9.764071
2023-04-16T08:48:38.262Z,9.764071
2023-04-16T08:49:38.259Z,9.764071
2023-04-16T08:50:38.240Z,9.764071
2023-04-16T08:51:38.226Z,9.764071
2023-04-16T08:52:38.223Z,9.764071
2023-04-16T08:53:38.214Z,9.764071
2023-04-16T08:54:38.208Z,9.764071
2023-04-16T08:55:38.187Z,9.764071
2023-04-16T08:56:38.180Z,9.764071
2023-04-16T08:57:38.166Z,9.764071
2023-04-16T08:58:38.162Z,9.764071
2023-04-16T08:59:38.182Z,9.764071
2023-04-16T09:00:38.148Z,9.764071
2023-04-16T09:01:38.209Z,9.764071
2023-04-16T09:02:38.360Z,9.764071
2023-04-16T09:03:38.307Z,9.764071
2023-04-16T09:04:38.260Z,9.764071
2023-04-16T09:05:38.088Z,9.764071
2023-04-16T09:06:38.073Z,9.764071
2023-04-16T09:07:38.068Z,9.764071
2023-04-16T09:08:38.059Z,9.764071
2023-04-16T09:09:38.059Z,9.764071
2023-04-16T09:10:38.033Z,9.764071
2023-04-16T09:11:38.028Z,9.764071
2023-04-16T09:12:38.016Z,9.764071
2023-04-16T09:13:38.004Z,9.764071
2023-04-16T09:14:38.009Z,9.764071
2023-04-16T09:15:37.981Z,9.764071
2023-04-16T09:16:38.056Z,9.764071
2023-04-16T09:17:38.002Z,9.764071
2023-04-16T09:18:37.958Z,9.764071
2023-04-16T09:19:37.969Z,9.764071
2023-04-16T09:20:37.936Z,9.764071
2023-04-16T09:21:37.917Z,9.764071
2023-04-16T09:22:37.914Z,9.764071
2023-04-16T09:23:37.901Z,9.764071
2023-04-16T09:24:37.905Z,9.764071
2023-04-16T09:25:37.877Z,9.764071
2023-04-16T09:26:37.865Z,9.764071
2023-04-16T09:27:37.858Z,9.764071
2023-04-16T09:28:37.842Z,9.764071
2023-04-16T09:29:37.854Z,9.764071
2023-04-16T09:30:37.829Z,9.764071
2023-04-16T09:31:37.936Z,9.764071
2023-04-16T09:32:37.861Z,9.764071
2023-04-16T09:33:37.796Z,9.764071
2023-04-16T09:34:37.806Z,9.764071
2023-04-16T09:35:37.832Z,9.764071
2023-04-16T09:36:37.769Z,9.764071
2023-04-16T09:37:37.753Z,9.764071
2023-04-16T09:38:37.747Z,9.764071
2023-04-16T09:39:37.738Z,9.764071
2023-04-16T09:40:37.742Z,9.764071
2023-04-16T09:41:37.714Z,9.764071
2023-04-16T09:42:37.710Z,9.764071
2023-04-16T09:43:37.689Z,9.764071
2023-04-16T09:44:37.689Z,9.764071
2023-04-16T09:45:37.700Z,9.764071
2023-04-16T09:46:37.656Z,9.764071
2023-04-16T09:47:37.702Z,9.764071
2023-04-16T09:48:37.641Z,9.764071
2023-04-16T09:49:37.625Z,9.764071
2023-04-16T09:50:37.643Z,9.764071
2023-04-16T09:51:37.623Z,9.764071
2023-04-16T09:52:37.605Z,9.764071
2023-04-16T09:53:37.592Z,9.764071
2023-04-16T09:54:37.578Z,9.764071
2023-04-16T09:55:37.590Z,9.764071
2023-04-16T09:56:37.559Z,9.764071
2023-04-16T09:57:37.545Z,9.764071
2023-04-16T09:58:37.536Z,9.764071
2023-04-16T09:59:37.528Z,9.764071
2023-04-16T10:00:42.330Z,9.764071
2023-04-16T10:01:38.533Z,9.764071
2023-04-16T10:02:37.566Z,9.764071
2023-04-16T10:03:37.597Z,9.764071
2023-04-16T10:04:37.536Z,9.764071
2023-04-16T10:05:37.508Z,9.764071
2023-04-16T10:06:37.466Z,9.764071
2023-04-16T10:07:37.452Z,9.764071
2023-04-16T10:08:37.439Z,9.764071
2023-04-16T10:09:37.432Z,9.764071
2023-04-16T10:10:37.483Z,9.764071
2023-04-16T10:11:37.413Z,9.764071
2023-04-16T10:12:37.400Z,9.764071
2023-04-16T10:13:37.391Z,9.764071
2023-04-16T10:14:37.383Z,9.764071
2023-04-16T10:15:37.376Z,9.764071
2023-04-16T10:16:37.407Z,9.764071
2023-04-16T10:17:37.385Z,9.764071
2023-04-16T10:18:37.344Z,9.764071
2023-04-16T10:19:37.334Z,9.764071
2023-04-16T10:20:37.327Z,9.764071
2023-04-16T10:21:37.317Z,9.764071
2023-04-16T10:22:37.299Z,9.764071
2023-04-16T10:23:37.908Z,9.764071
2023-04-16T10:24:38.278Z,9.764071
2023-04-16T10:25:37.288Z,9.764071
2023-04-16T10:26:37.256Z,9.764071
2023-04-16T10:27:37.285Z,9.764071
2023-04-16T10:28:37.232Z,9.764071
2023-04-16T10:29:37.226Z,9.764071
2023-04-16T10:30:37.258Z,9.764071
2023-04-16T10:31:37.205Z,9.764071
2023-04-16T10:32:37.234Z,9.764071
2023-04-16T10:33:37.178Z,9.764071
2023-04-16T10:34:37.182Z,9.764071
2023-04-16T10:35:37.175Z,9.764071
2023-04-16T10:36:37.151Z,9.764071
2023-04-16T10:37:37.142Z,9.764071
2023-04-16T10:38:37.153Z,9.762682
2023-04-16T10:39:37.122Z,9.762805
2023-04-16T10:40:37.122Z,9.762940
2023-04-16T10:41:37.104Z,9.762711
2023-04-16T10:42:37.086Z,9.762775
2023-04-16T10:43:37.091Z,9.762801
2023-04-16T10:44:37.070Z,9.762807
2023-04-16T10:45:37.072Z,9.762598
2023-04-16T10:46:37.095Z,9.762607
2023-04-16T10:47:37.058Z,9.762695
2023-04-16T10:48:48.811Z,9.762929
2023-04-16T10:49:39.027Z,9.762816
2023-04-16T10:50:37.192Z,9.763006
2023-04-16T10:51:37.006Z,9.762871
2023-04-16T10:52:36.994Z,9.763015
2023-04-16T10:53:37.006Z,9.762901
2023-04-16T10:54:36.972Z,9.762789
2023-04-16T10:55:36.976Z,9.762978
2023-04-16T10:56:36.953Z,9.763186
2023-04-16T10:57:36.942Z,9.762691
2023-04-16T10:58:36.933Z,9.762915
2023-04-16T10:59:36.933Z,9.762855
2023-04-16T11:00:36.917Z,9.762759
2023-04-16T11:01:36.962Z,9.762878
2023-04-16T11:02:37.004Z,9.762845
2023-04-16T11:03:37.056Z,9.762610
2023-04-16T11:04:36.986Z,9.762690
2023-04-16T11:05:36.866Z,9.762628
2023-04-16T11:06:36.881Z,9.762747
2023-04-16T11:07:36.845Z,9.762738
2023-04-16T11:08:47.530Z,9.762577
2023-04-16T11:09:39.929Z,9.762394
2023-04-16T11:10:36.852Z,9.762503
2023-04-16T11:11:36.843Z,9.762280
2023-04-16T11:12:36.860Z,9.761324
2023-04-16T11:13:36.810Z,9.763086
2023-04-16T11:14:36.780Z,9.762896
2023-04-16T11:15:36.795Z,9.762557
2023-04-16T11:16:36.765Z,9.762742
2023-04-16T11:17:36.770Z,9.762548
2023-04-16T11:18:36.749Z,9.762556
2023-04-16T11:19:36.750Z,9.762857
2023-04-16T11:20:36.730Z,9.762650
2023-04-16T11:21:36.715Z,9.762672
2023-04-16T11:22:36.702Z,9.762599
2023-04-16T11:23:36.794Z,9.762591
2023-04-16T11:24:36.933Z,9.762655
2023-04-16T11:25:37.536Z,9.762609
2023-04-16T11:26:36.712Z,9.762584
2023-04-16T11:27:36.655Z,9.762568
2023-04-16T11:28:36.663Z,9.762601
2023-04-16T11:29:36.628Z,9.762689
2023-04-16T11:30:37.440Z,9.762680
2023-04-16T11:31:36.678Z,9.762603
2023-04-16T11:32:36.630Z,9.762615
2023-04-16T11:33:36.593Z,9.762648
2023-04-16T11:34:46.031Z,9.762620
2023-04-16T11:35:54.542Z,9.762575
2023-04-16T11:36:36.599Z,9.762574
2023-04-16T11:37:36.628Z,9.763143
2023-04-16T11:38:36.574Z,9.763206
2023-04-16T11:39:36.571Z,9.763039
2023-04-16T11:40:36.562Z,9.762916
2023-04-16T11:41:36.528Z,9.762757
2023-04-16T11:42:36.559Z,9.762769
2023-04-16T11:43:36.520Z,9.762801
2023-04-16T11:44:36.502Z,9.762641
2023-04-16T11:45:36.500Z,9.762710
2023-04-16T11:46:36.514Z,9.762833
2023-04-16T11:47:36.479Z,9.762738
2023-04-16T11:48:36.451Z,9.762538
2023-04-16T11:49:36.447Z,9.762687
2023-04-16T11:50:36.445Z,9.762826
2023-04-16T11:51:36.448Z,9.762931
2023-04-16T11:52:36.462Z,9.762843
2023-04-16T11:53:36.418Z,9.762938
2023-04-16T11:54:36.439Z,9.762895
2023-04-16T11:55:36.402Z,9.762830
2023-04-16T11:56:36.407Z,9.762840
2023-04-16T11:57:36.393Z,9.762848
2023-04-16T11:58:36.385Z,9.762793
2023-04-16T11:59:37.357Z,9.762765
2023-04-16T12:00:37.376Z,9.762902
2023-04-16T12:01:36.365Z,9.763052
2023-04-16T12:02:36.471Z,9.762946
2023-04-16T12:03:36.716Z,9.762898
2023-04-16T12:04:36.504Z,9.762908
2023-04-16T12:05:36.326Z,9.763034
2023-04-16T12:06:36.287Z,9.762924
2023-04-16T12:07:36.293Z,9.762783
2023-04-16T12:08:36.278Z,9.762744
2023-04-16T12:09:39.350Z,9.762625
2023-04-16T12:10:36.276Z,9.762759
2023-04-16T12:11:36.254Z,9.762756
2023-04-16T12:12:36.256Z,9.762827
2023-04-16T12:13:36.227Z,9.762741
2023-04-16T12:14:36.216Z,9.762724
2023-04-16T12:15:36.305Z,9.762722
2023-04-16T12:16:36.222Z,9.762727
2023-04-16T12:17:36.234Z,9.762830
2023-04-16T12:18:36.188Z,9.762825
2023-04-16T12:19:36.196Z,9.762879
2023-04-16T12:20:36.189Z,9.762884
2023-04-16T12:21:36.158Z,9.762735
2023-04-16T12:22:36.984Z,9.762718
2023-04-16T12:23:37.140Z,9.762961
2023-04-16T12:24:36.983Z,9.763061
2023-04-16T12:25:36.130Z,9.762968
2023-04-16T12:26:36.094Z,9.763746
2023-04-16T12:27:36.163Z,9.762995
2023-04-16T12:28:36.115Z,9.763474
2023-04-16T12:29:36.064Z,9.762959
2023-04-16T12:30:36.125Z,9.762935
2023-04-16T12:31:36.059Z,9.762944
2023-04-16T12:32:36.267Z,9.762858
2023-04-16T12:33:36.071Z,9.763006
2023-04-16T12:34:48.702Z,9.763035
2023-04-16T12:35:37.057Z,9.762883
2023-04-16T12:36:36.070Z,9.762964
2023-04-16T12:37:36.028Z,9.763090
2023-04-16T12:38:36.016Z,9.763233
2023-04-16T12:39:36.008Z,9.763165
2023-04-16T12:40:35.991Z,9.763039
2023-04-16T12:41:36.021Z,9.763000
2023-04-16T12:42:36.018Z,9.762794
2023-04-16T12:43:35.978Z,9.762946
2023-04-16T12:44:36.018Z,9.763246
2023-04-16T12:45:35.951Z,9.762929
2023-04-16T12:46:35.997Z,9.762899
2023-04-16T12:47:36.027Z,9.763568
2023-04-16T12:48:35.988Z,9.763568
2023-04-16T12:49:35.967Z,9.763568
2023-04-16T12:50:35.943Z,9.763568
2023-04-16T12:51:35.916Z,9.763568
2023-04-16T12:52:35.914Z,9.763568
2023-04-16T12:53:35.894Z,9.763568
2023-04-16T12:54:35.886Z,9.763568
2023-04-16T12:55:35.876Z,9.763568
2023-04-16T12:56:35.888Z,9.763568
2023-04-16T12:57:35.861Z,9.763568
2023-04-16T12:58:35.841Z,9.763568
2023-04-16T12:59:35.808Z,9.763568
2023-04-16T13:00:35.800Z,9.763568
2023-04-16T13:01:35.847Z,9.763568
2023-04-16T13:02:35.826Z,9.763568
2023-04-16T13:03:35.937Z,9.762780
2023-04-16T13:04:35.810Z,9.762542
2023-04-16T13:05:35.732Z,9.762878
2023-04-16T13:06:35.750Z,9.762830
2023-04-16T13:07:35.703Z,9.762813
2023-04-16T13:08:35.692Z,9.762821
2023-04-16T13:09:37.723Z,9.762763
2023-04-16T13:10:35.675Z,9.762813
2023-04-16T13:11:35.665Z,9.762761
2023-04-16T13:12:35.650Z,9.762837
2023-04-16T13:13:35.641Z,9.762894
2023-04-16T13:14:35.634Z,9.762796
2023-04-16T13:15:35.624Z,9.762762
2023-04-16T13:16:35.625Z,9.762923
2023-04-16T13:17:35.640Z,9.762847
2023-04-16T13:18:35.592Z,9.762746
2023-04-16T13:19:35.578Z,9.762814
2023-04-16T13:20:35.571Z,9.762728
2023-04-16T13:21:35.572Z,9.762814
2023-04-16T13:22:35.572Z,9.762861
2023-04-16T13:23:35.548Z,9.762842
2023-04-16T13:24:35.538Z,9.762811
2023-04-16T13:25:35.533Z,9.762938
2023-04-16T13:26:35.509Z,9.763120
2023-04-16T13:27:35.509Z,9.762995
2023-04-16T13:28:35.492Z,9.762943
2023-04-16T13:29:35.481Z,9.762792
2023-04-16T13:30:35.491Z,9.762773
2023-04-16T13:31:35.483Z,9.762619
2023-04-16T13:32:35.485Z,9.762676
2023-04-16T13:33:35.448Z,9.762545
2023-04-16T13:34:35.441Z,9.762744
2023-04-16T13:35:35.422Z,9.762744
2023-04-16T13:36:35.433Z,9.763225
2023-04-16T13:37:35.397Z,9.763063
2023-04-16T13:38:35.395Z,9.763063
2023-04-16T13:39:35.383Z,9.762426
2023-04-16T13:40:35.370Z,9.763081
2023-04-16T13:41:35.378Z,9.762982
2023-04-16T13:42:35.360Z,9.762843
2023-04-16T13:43:35.366Z,9.762779
2023-04-16T13:44:35.332Z,9.762400
2023-04-16T13:45:36.322Z,9.761609
2023-04-16T13:46:35.370Z,9.762794
2023-04-16T13:47:35.334Z,9.762556
2023-04-16T13:48:35.299Z,9.762856
2023-04-16T13:49:35.905Z,9.762782
2023-04-16T13:50:36.280Z,9.762724
2023-04-16T13:51:35.285Z,9.762692
2023-04-16T13:52:35.258Z,9.762466
2023-04-16T13:53:35.254Z,9.762289
2023-04-16T13:54:35.237Z,9.762720
2023-04-16T13:55:35.234Z,9.762779
2023-04-16T13:56:35.230Z,9.762663
2023-04-16T13:57:35.206Z,9.762680
2023-04-16T13:58:36.200Z,9.762949
2023-04-16T13:59:35.188Z,9.762599
2023-04-16T14:00:35.226Z,9.762296
2023-04-16T14:01:35.178Z,9.762756
2023-04-16T14:02:35.328Z,9.762654
2023-04-16T14:03:35.180Z,9.762591
2023-04-16T14:04:35.141Z,9.762760
2023-04-16T14:05:35.167Z,9.762588
2023-04-16T14:06:35.122Z,9.762315
2023-04-16T14:07:35.126Z,9.762273
2023-04-16T14:08:35.107Z,9.761987
2023-04-16T14:09:35.102Z,9.761882
2023-04-16T14:10:35.092Z,9.762980
2023-04-16T14:11:36.079Z,9.762899
2023-04-16T14:12:35.064Z,9.762801
2023-04-16T14:13:35.059Z,9.762701
2023-04-16T14:14:35.049Z,9.762731